Time;durP1;ratioP1;P1;durP2;ratioP2;P2;SDS_P1;SDS_P2;PMS_P1;PMS_P2;Temp;Humidity;BMP_temperature;BMP_pressure;BME280_temperature;BME280_humidity;BME280_pressure;Samples;Min_cycle;Max_cycle;Signal;HPM_P1;HPM_P2
2022/12/04 00:00:07;;;;;;;;;;;0.50;99.90;;;;;;5097642;27;20051;-63
2022/12/04 00:02:32;;;;;;;;;;;0.50;99.90;;;;;;5094995;27;19920;-63
2022/12/04 00:04:58;;;;;;;;;;;0.50;99.90;;;;;;5097501;28;19977;-63
2022/12/04 00:07:23;;;;;;;;;;;0.40;99.90;;;;;;5101519;28;19928;-62
2022/12/04 00:09:49;;;;;;;;;;;0.50;99.90;;;;;;5091725;27;19938;-61
2022/12/04 00:12:14;;;;;;;;;;;0.50;99.90;;;;;;5093051;28;20046;-63
2022/12/04 00:14:40;;;;;;;;;;;0.40;99.90;;;;;;5096260;28;20051;-61
2022/12/04 00:17:05;;;;;;;;;;;0.50;99.90;;;;;;5067404;28;19937;-62
2022/12/04 00:19:31;;;;;;;;;;;0.50;99.90;;;;;;5111378;27;19977;-62
2022/12/04 00:21:56;;;;;;;;;;;0.50;99.90;;;;;;5103491;28;19926;-63
2022/12/04 00:24:21;;;;;;;;;;;0.50;99.90;;;;;;5079236;28;20022;-62
2022/12/04 00:26:47;;;;;;;;;;;0.50;99.90;;;;;;5117337;27;19927;-63
2022/12/04 00:29:13;;;;;;;;;;;0.50;99.90;;;;;;5095079;27;19920;-62
2022/12/04 00:31:38;;;;;;;;;;;0.50;99.90;;;;;;5079147;28;20356;-63
2022/12/04 00:34:04;;;;;;;;;;;0.50;99.90;;;;;;5085694;28;19935;-64
2022/12/04 00:36:30;;;;;;;;;;;0.50;99.90;;;;;;5076108;28;19927;-63
2022/12/04 00:38:57;;;;;;;;;;;0.50;99.90;;;;;;5082934;28;20314;-63
2022/12/04 00:41:23;;;;;;;;;;;0.50;99.90;;;;;;5075146;28;19921;-64
2022/12/04 00:43:49;;;;;;;;;;;0.50;99.90;;;;;;5098371;28;20139;-64
2022/12/04 00:46:14;;;;;;;;;;;0.50;99.90;;;;;;5082627;28;19944;-61
2022/12/04 00:48:40;;;;;;;;;;;0.50;99.90;;;;;;5081313;28;19920;-63
2022/12/04 00:51:08;;;;;;;;;;;0.50;99.90;;;;;;5096426;28;20405;-62
2022/12/04 00:53:33;;;;;;;;;;;0.50;99.90;;;;;;5102459;28;20002;-63
2022/12/04 00:56:03;;;;;;;;;;;0.50;99.90;;;;;;5101188;28;19959;-63
2022/12/04 00:58:28;;;;;;;;;;;0.50;99.90;;;;;;5115514;28;19920;-62
2022/12/04 01:01:00;;;;;;;;;;;0.50;99.90;;;;;;5095700;28;19924;-62
2022/12/04 01:03:25;;;;;;;;;;;0.50;99.90;;;;;;5109253;28;20329;-63
2022/12/04 01:05:50;;;;;;;;;;;0.50;99.90;;;;;;5100697;28;19935;-63
2022/12/04 01:08:16;;;;;;;;;;;0.50;99.90;;;;;;5104207;28;19951;-62
2022/12/04 01:10:41;;;;;;;;;;;0.50;99.90;;;;;;5099917;27;19927;-63
2022/12/04 01:13:07;;;;;;;;;;;0.50;99.90;;;;;;5083721;28;20378;-64
2022/12/04 01:15:32;;;;;;;;;;;0.50;99.90;;;;;;5081728;28;19920;-63
2022/12/04 01:17:58;;;;;;;;;;;0.50;99.90;;;;;;5084538;27;20405;-63
2022/12/04 01:20:23;;;;;;;;;;;0.50;99.90;;;;;;5101778;28;19920;-63
2022/12/04 01:22:49;;;;;;;;;;;0.50;99.90;;;;;;5119033;27;19920;-63
2022/12/04 01:25:14;;;;;;;;;;;0.50;99.90;;;;;;5086077;28;20358;-62
2022/12/04 01:27:40;;;;;;;;;;;0.50;99.90;;;;;;5067783;28;19925;-63
2022/12/04 01:30:06;;;;;;;;;;;0.50;99.90;;;;;;5086317;27;19934;-63
2022/12/04 01:32:31;;;;;;;;;;;0.50;99.90;;;;;;5100135;28;19931;-63
2022/12/04 01:34:57;;;;;;;;;;;0.50;99.90;;;;;;5107055;27;20378;-63
2022/12/04 01:37:22;;;;;;;;;;;0.50;99.90;;;;;;5099883;27;19949;-63
2022/12/04 01:39:48;;;;;;;;;;;0.50;99.90;;;;;;5080353;28;19963;-62
2022/12/04 01:42:14;;;;;;;;;;;0.50;99.90;;;;;;5079912;28;19930;-63
2022/12/04 01:45:03;;;;;;;;;;;0.50;99.90;;;;;;5083923;27;19920;-63
2022/12/04 01:47:28;;;;;;;;;;;0.50;99.90;;;;;;5090150;27;19955;-62
2022/12/04 01:49:54;;;;;;;;;;;0.50;99.90;;;;;;5094081;27;19966;-62
2022/12/04 01:52:20;;;;;;;;;;;0.50;99.90;;;;;;5081713;28;20391;-63
2022/12/04 01:54:48;;;;;;;;;;;0.50;99.90;;;;;;5105954;27;19928;-62
2022/12/04 01:57:15;;;;;;;;;;;0.50;99.90;;;;;;5081153;27;19919;-63
2022/12/04 01:59:46;;;;;;;;;;;0.50;99.90;;;;;;5087418;28;19969;-63
2022/12/04 02:02:13;;;;;;;;;;;0.50;99.90;;;;;;5096803;27;19970;-62
2022/12/04 02:04:39;;;;;;;;;;;0.50;99.90;;;;;;5110115;27;19924;-62
2022/12/04 02:07:05;;;;;;;;;;;0.50;99.90;;;;;;5080589;28;19921;-63
2022/12/04 02:09:31;;;;;;;;;;;0.50;99.90;;;;;;5102423;28;19919;-63
2022/12/04 02:12:02;;;;;;;;;;;0.50;99.90;;;;;;5098210;28;19934;-62
2022/12/04 02:14:57;;;;;;;;;;;0.50;99.90;;;;;;5105485;28;19926;-63
2022/12/04 02:17:27;;;;;;;;;;;0.50;99.90;;;;;;5088747;27;19920;-62
2022/12/04 02:19:58;;;;;;;;;;;0.50;99.90;;;;;;5102427;28;20395;-63
2022/12/04 02:22:36;;;;;;;;;;;0.50;99.90;;;;;;5101977;28;19927;-62
2022/12/04 02:25:18;;;;;;;;;;;0.50;99.90;;;;;;5109777;28;19974;-63
2022/12/04 02:27:51;;;;;;;;;;;0.50;99.90;;;;;;5107684;27;20294;-63
2022/12/04 02:30:16;;;;;;;;;;;0.50;99.90;;;;;;5133934;27;19934;-63
2022/12/04 02:32:42;;;;;;;;;;;0.50;99.90;;;;;;5140166;27;19947;-63
2022/12/04 02:35:17;;;;;;;;;;;0.40;99.90;;;;;;5101257;27;19924;-62
2022/12/04 02:37:48;;;;;;;;;;;0.50;99.90;;;;;;5137476;27;19972;-62
2022/12/04 02:40:46;;;;;;;;;;;0.50;99.90;;;;;;5085126;28;20056;-63
2022/12/04 02:43:24;;;;;;;;;;;0.50;99.90;;;;;;5062549;28;19992;-64
2022/12/04 02:45:55;;;;;;;;;;;0.40;99.90;;;;;;5103736;28;19924;-64
2022/12/04 02:48:21;;;;;;;;;;;0.40;99.90;;;;;;5107040;27;19942;-63
2022/12/04 02:50:49;;;;;;;;;;;0.50;99.90;;;;;;5103558;27;19931;-63
2022/12/04 02:53:17;;;;;;;;;;;0.40;99.90;;;;;;5107975;28;19976;-63
2022/12/04 02:55:46;;;;;;;;;;;0.40;99.90;;;;;;5098489;28;19939;-63
2022/12/04 02:58:14;;;;;;;;;;;0.40;99.90;;;;;;5099146;28;19924;-63
2022/12/04 03:00:40;;;;;;;;;;;0.40;99.90;;;;;;5104590;28;19927;-64
2022/12/04 03:03:12;;;;;;;;;;;0.40;99.90;;;;;;5102848;28;19923;-63
2022/12/04 03:05:39;;;;;;;;;;;0.40;99.90;;;;;;5107446;27;20239;-63
2022/12/04 03:08:08;;;;;;;;;;;0.40;99.90;;;;;;5109028;27;19920;-63
2022/12/04 03:10:37;;;;;;;;;;;0.40;99.90;;;;;;5096481;28;20041;-62
2022/12/04 03:13:09;;;;;;;;;;;0.40;99.90;;;;;;5100570;27;20370;-63
2022/12/04 03:15:49;;;;;;;;;;;0.40;99.90;;;;;;5080806;28;20429;-63
2022/12/04 03:18:21;;;;;;;;;;;0.40;99.90;;;;;;5114895;27;20322;-63
2022/12/04 03:20:48;;;;;;;;;;;0.40;99.90;;;;;;5097170;27;20302;-61
2022/12/04 03:23:19;;;;;;;;;;;0.40;99.90;;;;;;5098861;27;19923;-63
2022/12/04 03:25:50;;;;;;;;;;;0.40;99.90;;;;;;5099303;28;19931;-63
2022/12/04 03:28:25;;;;;;;;;;;0.30;99.90;;;;;;5095701;27;20018;-62
2022/12/04 03:30:55;;;;;;;;;;;0.30;99.90;;;;;;5077584;28;19997;-62
2022/12/04 03:33:25;;;;;;;;;;;0.30;99.90;;;;;;5111316;27;20011;-63
2022/12/04 03:35:56;;;;;;;;;;;0.40;99.90;;;;;;5083676;28;19924;-63
2022/12/04 03:38:40;;;;;;;;;;;0.30;99.90;;;;;;5097611;28;19927;-62
2022/12/04 03:41:12;;;;;;;;;;;0.40;99.90;;;;;;5102441;27;19926;-63
2022/12/04 03:43:57;;;;;;;;;;;0.40;99.90;;;;;;5091838;28;19966;-62
2022/12/04 03:46:38;;;;;;;;;;;0.30;99.90;;;;;;5097714;28;19924;-62
2022/12/04 03:49:09;;;;;;;;;;;0.40;99.90;;;;;;5080871;27;20306;-62
2022/12/04 03:51:56;;;;;;;;;;;0.30;99.90;;;;;;5089585;28;20003;-61
2022/12/04 03:54:24;;;;;;;;;;;0.40;99.90;;;;;;5106902;28;20400;-62
2022/12/04 03:56:52;;;;;;;;;;;0.40;99.90;;;;;;5114608;27;19966;-62
2022/12/04 03:59:38;;;;;;;;;;;0.30;99.90;;;;;;5091991;28;20389;-62
2022/12/04 04:02:07;;;;;;;;;;;0.30;99.90;;;;;;5100047;27;19924;-62
2022/12/04 04:04:34;;;;;;;;;;;0.30;99.90;;;;;;5123998;27;20279;-62
2022/12/04 04:07:23;;;;;;;;;;;0.40;99.90;;;;;;5086752;28;19923;-63
2022/12/04 04:09:52;;;;;;;;;;;0.40;99.90;;;;;;5095591;28;19924;-62
2022/12/04 04:12:23;;;;;;;;;;;0.40;99.90;;;;;;5086312;28;20296;-64
2022/12/04 04:25:53;;;;;;;;;;;0.40;99.90;;;;;;5114272;27;19934;-63
2022/12/04 04:28:32;;;;;;;;;;;0.40;99.90;;;;;;5081856;28;19919;-63
2022/12/04 04:31:21;;;;;;;;;;;0.40;99.90;;;;;;5085245;28;19920;-63
2022/12/04 04:33:50;;;;;;;;;;;0.40;99.90;;;;;;5039361;28;19928;-62
2022/12/04 04:36:27;;;;;;;;;;;0.40;99.90;;;;;;5109525;28;19963;-62
2022/12/04 04:39:02;;;;;;;;;;;0.40;99.90;;;;;;5086234;28;19930;-63
2022/12/04 04:41:33;;;;;;;;;;;0.40;99.90;;;;;;5094415;28;19924;-62
2022/12/04 04:44:04;;;;;;;;;;;0.40;99.90;;;;;;5079303;28;19920;-62
2022/12/04 04:46:32;;;;;;;;;;;0.40;99.90;;;;;;5104416;27;19920;-63
2022/12/04 04:48:59;;;;;;;;;;;0.40;99.90;;;;;;5110947;27;20401;-62
2022/12/04 04:51:25;;;;;;;;;;;0.40;99.90;;;;;;5089266;28;20038;-62
2022/12/04 04:53:52;;;;;;;;;;;0.40;99.90;;;;;;5109181;27;20034;-63
2022/12/04 04:56:18;;;;;;;;;;;0.40;99.90;;;;;;5106707;28;19926;-62
2022/12/04 04:58:44;;;;;;;;;;;0.40;99.90;;;;;;5126533;27;19919;-63
2022/12/04 05:01:14;;;;;;;;;;;0.40;99.90;;;;;;5103620;27;19927;-62
2022/12/04 05:03:40;;;;;;;;;;;0.40;99.90;;;;;;5085477;28;19920;-63
2022/12/04 05:06:05;;;;;;;;;;;0.40;99.90;;;;;;5109400;28;19920;-63
2022/12/04 05:08:31;;;;;;;;;;;0.40;99.90;;;;;;5124124;27;20020;-63
2022/12/04 05:10:57;;;;;;;;;;;0.40;99.90;;;;;;5116761;27;20226;-62
2022/12/04 05:13:22;;;;;;;;;;;0.40;99.90;;;;;;5111452;28;20390;-62
2022/12/04 05:15:58;;;;;;;;;;;0.40;99.90;;;;;;5090672;28;19928;-62
2022/12/04 05:18:23;;;;;;;;;;;0.40;99.90;;;;;;5082615;28;19920;-62
2022/12/04 05:20:49;;;;;;;;;;;0.40;99.90;;;;;;5098604;27;19965;-62
2022/12/04 05:23:14;;;;;;;;;;;0.40;99.90;;;;;;5079605;28;20343;-62
2022/12/04 05:25:40;;;;;;;;;;;0.40;99.90;;;;;;5088194;28;19928;-62
2022/12/04 05:28:05;;;;;;;;;;;0.40;99.90;;;;;;5089665;28;19923;-62
2022/12/04 05:30:31;;;;;;;;;;;0.40;99.90;;;;;;5089299;28;20527;-62
2022/12/04 05:32:56;;;;;;;;;;;0.40;99.90;;;;;;5092028;28;20302;-63
2022/12/04 05:35:22;;;;;;;;;;;0.40;99.90;;;;;;5088790;28;19930;-63
2022/12/04 05:37:47;;;;;;;;;;;0.30;99.90;;;;;;5103537;28;19964;-63
2022/12/04 05:40:13;;;;;;;;;;;0.30;99.90;;;;;;5087481;28;19926;-63
2022/12/04 05:42:38;;;;;;;;;;;0.40;99.90;;;;;;5090098;28;20015;-61
2022/12/04 05:45:04;;;;;;;;;;;0.40;99.90;;;;;;5088516;28;20275;-62
2022/12/04 05:47:29;;;;;;;;;;;0.30;99.90;;;;;;5088908;27;19924;-63
2022/12/04 05:49:55;;;;;;;;;;;0.40;99.90;;;;;;5083652;28;19928;-62
2022/12/04 05:52:20;;;;;;;;;;;0.30;99.90;;;;;;5089024;28;20256;-63
2022/12/04 05:54:46;;;;;;;;;;;0.40;99.90;;;;;;5117453;27;20010;-63
2022/12/04 05:57:11;;;;;;;;;;;0.30;99.90;;;;;;5088103;27;20294;-62
2022/12/04 05:59:37;;;;;;;;;;;0.30;99.90;;;;;;5111080;27;19919;-62
2022/12/04 06:02:02;;;;;;;;;;;0.30;99.90;;;;;;5106241;27;20378;-63
2022/12/04 06:04:28;;;;;;;;;;;0.30;99.90;;;;;;5110955;28;20643;-62
2022/12/04 06:06:54;;;;;;;;;;;0.30;99.90;;;;;;5084728;28;20385;-63
2022/12/04 06:09:19;;;;;;;;;;;0.40;99.90;;;;;;5107649;28;20371;-63
2022/12/04 06:11:45;;;;;;;;;;;0.30;99.90;;;;;;5084611;28;20374;-63
2022/12/04 06:14:12;;;;;;;;;;;0.30;99.90;;;;;;5112861;28;20425;-62
2022/12/04 06:16:39;;;;;;;;;;;0.30;99.90;;;;;;5093624;28;19927;-62
2022/12/04 06:19:10;;;;;;;;;;;0.30;99.90;;;;;;5109298;28;20014;-63
2022/12/04 06:21:37;;;;;;;;;;;0.30;99.90;;;;;;5091193;28;19920;-62
2022/12/04 06:24:03;;;;;;;;;;;0.30;99.90;;;;;;5085075;27;20346;-62
2022/12/04 06:26:28;;;;;;;;;;;0.30;99.90;;;;;;5100270;28;20319;-63
2022/12/04 06:28:55;;;;;;;;;;;0.30;99.90;;;;;;5090939;28;19927;-62
2022/12/04 06:31:21;;;;;;;;;;;0.30;99.90;;;;;;5092262;28;19931;-62
2022/12/04 06:33:46;;;;;;;;;;;0.30;99.90;;;;;;5090221;28;19928;-63
2022/12/04 06:36:13;;;;;;;;;;;0.30;99.90;;;;;;5082462;28;20031;-62
2022/12/04 06:38:39;;;;;;;;;;;0.30;99.90;;;;;;5107414;28;19959;-62
2022/12/04 06:41:05;;;;;;;;;;;0.30;99.90;;;;;;5084976;28;20334;-63
2022/12/04 06:43:31;;;;;;;;;;;0.40;99.90;;;;;;5081231;28;19923;-62
2022/12/04 06:46:00;;;;;;;;;;;0.30;99.90;;;;;;5112491;28;20029;-62
2022/12/04 06:48:28;;;;;;;;;;;0.40;99.90;;;;;;5087467;28;19920;-62
2022/12/04 06:50:57;;;;;;;;;;;0.40;99.90;;;;;;5111460;27;19920;-64
2022/12/04 06:53:22;;;;;;;;;;;0.30;99.90;;;;;;5081412;27;19939;-64
2022/12/04 06:55:48;;;;;;;;;;;0.40;99.90;;;;;;5111278;28;19919;-63
2022/12/04 06:58:13;;;;;;;;;;;0.30;99.90;;;;;;5106792;27;19927;-62
2022/12/04 07:00:38;;;;;;;;;;;0.30;99.90;;;;;;5103723;28;19919;-63
2022/12/04 07:03:04;;;;;;;;;;;0.40;99.90;;;;;;5092651;28;19924;-63
2022/12/04 07:05:29;;;;;;;;;;;0.30;99.90;;;;;;5103008;28;20839;-62
2022/12/04 07:07:55;;;;;;;;;;;0.30;99.90;;;;;;5080247;28;19920;-63
2022/12/04 07:10:20;;;;;;;;;;;0.40;99.90;;;;;;5086847;28;20010;-62
2022/12/04 07:12:46;;;;;;;;;;;0.30;99.90;;;;;;5080120;28;19927;-63
2022/12/04 07:15:11;;;;;;;;;;;0.40;99.90;;;;;;5103275;28;20374;-62
2022/12/04 07:17:37;;;;;;;;;;;0.40;99.90;;;;;;5082928;28;20006;-62
2022/12/04 07:20:03;;;;;;;;;;;0.30;99.90;;;;;;5087553;28;19920;-63
2022/12/04 07:22:28;;;;;;;;;;;0.40;99.90;;;;;;5087041;28;20000;-62
2022/12/04 07:24:53;;;;;;;;;;;0.40;99.90;;;;;;5101139;28;19920;-63
2022/12/04 07:27:19;;;;;;;;;;;0.40;99.90;;;;;;5106707;27;20338;-62
2022/12/04 07:29:44;;;;;;;;;;;0.40;99.90;;;;;;5107778;28;19931;-62
2022/12/04 07:32:10;;;;;;;;;;;0.40;99.90;;;;;;5085029;28;19967;-62
2022/12/04 07:34:35;;;;;;;;;;;0.40;99.90;;;;;;5077707;28;20023;-62
2022/12/04 07:37:01;;;;;;;;;;;0.40;99.90;;;;;;5088091;28;19916;-62
2022/12/04 07:39:27;;;;;;;;;;;0.40;99.90;;;;;;5108664;28;19973;-62
2022/12/04 07:41:52;;;;;;;;;;;0.40;99.90;;;;;;5101840;28;19923;-62
2022/12/04 07:44:18;;;;;;;;;;;0.40;99.90;;;;;;5085329;28;20366;-62
2022/12/04 07:46:43;;;;;;;;;;;0.40;99.90;;;;;;5091058;28;20026;-63
2022/12/04 07:49:10;;;;;;;;;;;0.40;99.90;;;;;;5099068;27;20013;-63
2022/12/04 07:51:35;;;;;;;;;;;0.40;99.90;;;;;;5097916;28;20368;-62
2022/12/04 07:54:01;;;;;;;;;;;0.40;99.90;;;;;;5085921;28;20011;-63
2022/12/04 07:56:26;;;;;;;;;;;0.50;99.90;;;;;;5106833;28;20026;-64
2022/12/04 07:58:52;;;;;;;;;;;0.40;99.90;;;;;;5112487;27;20370;-63
2022/12/04 08:01:18;;;;;;;;;;;0.40;99.90;;;;;;5109381;27;19927;-62
2022/12/04 08:03:45;;;;;;;;;;;0.40;99.90;;;;;;5117908;27;19920;-62
2022/12/04 08:06:10;;;;;;;;;;;0.40;99.90;;;;;;5109125;28;19926;-63
2022/12/04 08:08:36;;;;;;;;;;;0.50;99.90;;;;;;5078749;28;20358;-62
2022/12/04 08:11:05;;;;;;;;;;;0.50;99.90;;;;;;5089881;28;20492;-63
2022/12/04 08:13:30;;;;;;;;;;;0.50;99.90;;;;;;5100125;28;19930;-62
2022/12/04 08:15:56;;;;;;;;;;;0.40;99.90;;;;;;5105382;28;19920;-62
2022/12/04 08:18:21;;;;;;;;;;;0.50;99.90;;;;;;5107320;27;20340;-63
2022/12/04 08:20:47;;;;;;;;;;;0.40;99.90;;;;;;5103510;28;19923;-63
2022/12/04 08:23:12;;;;;;;;;;;0.50;99.90;;;;;;5094180;28;20486;-63
2022/12/04 08:25:39;;;;;;;;;;;0.50;99.90;;;;;;5108361;28;19934;-62
2022/12/04 08:28:04;;;;;;;;;;;0.50;99.90;;;;;;5097747;28;20267;-62
2022/12/04 08:30:31;;;;;;;;;;;0.50;99.90;;;;;;5101720;28;19928;-62
2022/12/04 08:32:56;;;;;;;;;;;0.50;99.90;;;;;;5102011;28;19931;-62
2022/12/04 08:35:22;;;;;;;;;;;0.50;99.90;;;;;;5099065;28;19924;-62
2022/12/04 08:37:47;;;;;;;;;;;0.50;99.90;;;;;;5103270;28;19968;-62
2022/12/04 08:40:13;;;;;;;;;;;0.50;99.90;;;;;;5110308;28;20365;-63
2022/12/04 08:42:38;;;;;;;;;;;0.50;99.90;;;;;;5104952;28;19927;-63
2022/12/04 08:45:04;;;;;;;;;;;0.50;99.90;;;;;;5110033;28;20436;-63
2022/12/04 08:47:29;;;;;;;;;;;0.50;99.90;;;;;;5101857;28;20053;-62
2022/12/04 08:49:55;;;;;;;;;;;0.60;99.90;;;;;;5091405;28;19920;-63
2022/12/04 08:52:20;;;;;;;;;;;0.50;99.90;;;;;;5127253;27;19931;-63
2022/12/04 08:54:48;;;;;;;;;;;0.50;99.90;;;;;;5110711;28;20446;-62
2022/12/04 08:57:14;;;;;;;;;;;0.60;99.90;;;;;;5105699;28;19973;-63
2022/12/04 08:59:39;;;;;;;;;;;0.60;99.90;;;;;;5093368;28;19924;-62
2022/12/04 09:02:05;;;;;;;;;;;0.60;99.90;;;;;;5102548;28;19923;-62
2022/12/04 09:04:30;;;;;;;;;;;0.60;99.90;;;;;;5113599;28;19920;-62
2022/12/04 09:06:56;;;;;;;;;;;0.60;99.90;;;;;;5099342;28;19923;-64
2022/12/04 09:09:21;;;;;;;;;;;0.60;99.90;;;;;;5112434;28;20010;-62
2022/12/04 09:11:47;;;;;;;;;;;0.60;99.90;;;;;;5088171;28;19930;-62
2022/12/04 09:14:12;;;;;;;;;;;0.60;99.90;;;;;;5074572;28;19927;-62
2022/12/04 09:16:38;;;;;;;;;;;0.60;99.90;;;;;;5097211;28;19924;-62
2022/12/04 09:19:03;;;;;;;;;;;0.60;99.90;;;;;;5083835;28;19970;-63
2022/12/04 09:21:29;;;;;;;;;;;0.70;99.90;;;;;;5106375;28;19920;-62
2022/12/04 09:23:55;;;;;;;;;;;0.70;99.90;;;;;;5080395;28;19955;-62
2022/12/04 09:26:22;;;;;;;;;;;0.70;99.90;;;;;;5083842;28;20026;-63
2022/12/04 09:28:48;;;;;;;;;;;0.70;99.90;;;;;;5088162;28;20006;-62
2022/12/04 09:31:14;;;;;;;;;;;0.70;99.90;;;;;;5110228;28;19943;-63
2022/12/04 09:33:40;;;;;;;;;;;0.80;99.90;;;;;;5077667;28;19970;-63
2022/12/04 09:36:05;;;;;;;;;;;0.70;99.90;;;;;;5094338;28;20359;-63
2022/12/04 09:38:31;;;;;;;;;;;0.70;99.90;;;;;;5087058;28;19920;-62
2022/12/04 09:41:02;;;;;;;;;;;0.80;99.90;;;;;;5105314;28;20286;-62
2022/12/04 09:43:30;;;;;;;;;;;0.80;99.90;;;;;;5077940;28;19920;-61
2022/12/04 09:45:59;;;;;;;;;;;0.80;99.90;;;;;;5096320;28;20294;-62
2022/12/04 09:48:38;;;;;;;;;;;0.80;99.90;;;;;;5102092;28;19920;-63
2022/12/04 09:51:05;;;;;;;;;;;0.80;99.90;;;;;;5104140;28;19920;-62
2022/12/04 09:54:03;;;;;;;;;;;0.80;99.90;;;;;;5100428;28;20282;-63
2022/12/04 09:56:29;;;;;;;;;;;0.90;99.90;;;;;;5045182;28;19932;-63
2022/12/04 09:59:07;;;;;;;;;;;0.90;99.90;;;;;;5110694;28;19985;-62
2022/12/04 10:01:55;;;;;;;;;;;0.90;99.90;;;;;;5110804;28;20374;-62
2022/12/04 10:04:20;;;;;;;;;;;0.90;99.90;;;;;;5092422;28;19920;-62
2022/12/04 10:06:57;;;;;;;;;;;1.00;99.90;;;;;;5108120;28;20282;-63
2022/12/04 10:09:35;;;;;;;;;;;0.90;99.90;;;;;;5109984;28;19927;-63
2022/12/04 10:12:21;;;;;;;;;;;0.90;99.90;;;;;;5091357;27;20267;-63
2022/12/04 10:14:46;;;;;;;;;;;1.00;99.90;;;;;;5086500;28;20364;-62
2022/12/04 10:17:15;;;;;;;;;;;1.00;99.90;;;;;;5086372;28;20036;-62
2022/12/04 10:19:52;;;;;;;;;;;1.00;99.90;;;;;;5090819;28;20343;-62
2022/12/04 10:22:28;;;;;;;;;;;1.00;99.90;;;;;;5086122;28;20385;-63
2022/12/04 10:24:56;;;;;;;;;;;1.10;99.90;;;;;;5091490;28;19955;-61
2022/12/04 10:27:34;;;;;;;;;;;1.10;99.90;;;;;;5088522;28;19920;-61
2022/12/04 10:30:06;;;;;;;;;;;1.10;99.90;;;;;;5088307;28;19920;-62
2022/12/04 10:32:32;;;;;;;;;;;1.10;99.90;;;;;;5095649;28;20372;-63
2022/12/04 10:35:24;;;;;;;;;;;1.20;99.90;;;;;;5085750;28;19919;-63
2022/12/04 10:37:52;;;;;;;;;;;1.20;99.90;;;;;;5082352;28;19926;-62
2022/12/04 10:40:23;;;;;;;;;;;1.20;99.90;;;;;;5105683;27;19920;-62
2022/12/04 10:42:59;;;;;;;;;;;1.30;99.90;;;;;;5114512;27;19920;-63
2022/12/04 10:45:25;;;;;;;;;;;1.30;99.90;;;;;;5096259;28;19920;-62
2022/12/04 10:47:51;;;;;;;;;;;1.30;99.90;;;;;;5092948;28;20362;-62
2022/12/04 10:50:19;;;;;;;;;;;1.40;99.90;;;;;;5102862;28;19924;-63
2022/12/04 10:52:44;;;;;;;;;;;1.30;99.90;;;;;;5101189;28;19932;-63
2022/12/04 10:55:10;;;;;;;;;;;1.40;99.90;;;;;;5111129;27;19931;-63
2022/12/04 10:57:37;;;;;;;;;;;1.40;99.90;;;;;;5089180;28;19969;-62
2022/12/04 11:00:04;;;;;;;;;;;1.40;99.90;;;;;;5101046;27;19989;-62
2022/12/04 11:02:31;;;;;;;;;;;1.40;99.90;;;;;;5093323;28;19920;-63
2022/12/04 11:04:58;;;;;;;;;;;1.50;99.90;;;;;;5101907;27;19942;-62
2022/12/04 11:07:25;;;;;;;;;;;1.50;99.90;;;;;;5087385;28;19999;-64
2022/12/04 11:09:55;;;;;;;;;;;1.50;99.90;;;;;;5127659;27;19927;-62
2022/12/04 11:12:21;;;;;;;;;;;1.50;99.90;;;;;;5110743;28;20386;-62
2022/12/04 11:14:57;;;;;;;;;;;1.50;99.90;;;;;;5097248;28;20035;-63
2022/12/04 11:17:23;;;;;;;;;;;1.60;99.90;;;;;;5110997;28;19933;-62
2022/12/04 11:19:57;;;;;;;;;;;1.50;99.90;;;;;;5099403;27;19920;-63
2022/12/04 11:22:22;;;;;;;;;;;1.60;99.90;;;;;;5101842;27;19964;-62
2022/12/04 11:24:55;;;;;;;;;;;1.60;99.90;;;;;;5094628;27;19930;-62
2022/12/04 11:27:32;;;;;;;;;;;1.60;99.90;;;;;;5098229;27;19919;-62
2022/12/04 11:30:02;;;;;;;;;;;1.70;99.90;;;;;;5095211;27;19920;-62
2022/12/04 11:32:29;;;;;;;;;;;1.70;99.90;;;;;;5073243;28;19924;-62
2022/12/04 11:34:58;;;;;;;;;;;1.70;99.90;;;;;;5097605;27;19920;-62
2022/12/04 11:37:25;;;;;;;;;;;1.70;99.90;;;;;;5096463;27;19920;-62
2022/12/04 11:39:51;;;;;;;;;;;1.80;99.90;;;;;;5090972;27;19985;-63
2022/12/04 11:42:18;;;;;;;;;;;1.80;99.90;;;;;;5099009;28;19979;-63
2022/12/04 11:45:01;;;;;;;;;;;1.80;99.90;;;;;;5100200;27;19920;-63
2022/12/04 11:47:31;;;;;;;;;;;1.90;99.90;;;;;;5081702;28;19959;-62
2022/12/04 11:50:00;;;;;;;;;;;1.90;99.90;;;;;;5102003;27;19977;-63
2022/12/04 11:52:44;;;;;;;;;;;1.90;99.90;;;;;;5101809;28;20007;-63
2022/12/04 11:55:29;;;;;;;;;;;1.90;99.90;;;;;;5102349;28;19920;-63
2022/12/04 11:58:10;;;;;;;;;;;1.90;99.90;;;;;;5131001;27;19931;-62
2022/12/04 12:00:39;;;;;;;;;;;2.00;99.90;;;;;;5102389;27;20010;-63
2022/12/04 12:03:34;;;;;;;;;;;2.00;99.90;;;;;;5100626;27;20271;-63
2022/12/04 12:06:19;;;;;;;;;;;2.00;99.90;;;;;;5085400;28;19920;-63
2022/12/04 12:08:55;;;;;;;;;;;2.00;99.90;;;;;;5111162;28;20377;-62
2022/12/04 12:11:26;;;;;;;;;;;2.00;99.90;;;;;;5100986;28;19927;-62
2022/12/04 12:13:55;;;;;;;;;;;2.10;99.90;;;;;;5083460;28;20294;-62
2022/12/04 12:16:33;;;;;;;;;;;2.10;99.90;;;;;;5110664;28;19920;-63
2022/12/04 12:19:17;;;;;;;;;;;2.10;99.90;;;;;;5082653;28;20298;-64
2022/12/04 12:22:01;;;;;;;;;;;2.20;99.90;;;;;;5087701;28;19920;-63
2022/12/04 12:24:35;;;;;;;;;;;2.20;99.90;;;;;;5121195;27;19924;-64
2022/12/04 12:27:24;;;;;;;;;;;2.20;99.90;;;;;;5073876;28;19928;-65
2022/12/04 12:29:53;;;;;;;;;;;2.20;99.90;;;;;;5080964;28;20401;-64
2022/12/04 12:32:18;;;;;;;;;;;2.30;99.90;;;;;;5075028;28;19920;-66
2022/12/04 12:34:44;;;;;;;;;;;2.30;99.90;;;;;;5090960;28;19951;-64
2022/12/04 12:37:17;;;;;;;;;;;2.40;99.90;;;;;;5091460;28;20147;-65
2022/12/04 12:39:45;;;;;;;;;;;2.30;99.90;;;;;;5098644;28;20290;-65
2022/12/04 12:42:17;;;;;;;;;;;2.40;99.90;;;;;;5091669;28;19920;-64
2022/12/04 12:44:43;;;;;;;;;;;2.40;99.90;;;;;;5075270;28;20018;-65
2022/12/04 12:47:13;;;;;;;;;;;2.50;99.90;;;;;;5086117;28;20583;-65
2022/12/04 12:49:43;;;;;;;;;;;2.40;99.90;;;;;;5084815;28;20015;-63
2022/12/04 12:52:18;;;;;;;;;;;2.50;99.90;;;;;;5086860;28;19924;-65
2022/12/04 12:54:49;;;;;;;;;;;2.40;99.90;;;;;;5079392;28;19924;-64
2022/12/04 12:57:18;;;;;;;;;;;2.40;99.90;;;;;;5087217;28;19959;-64
2022/12/04 12:59:48;;;;;;;;;;;2.40;99.90;;;;;;5076114;28;19923;-64
2022/12/04 13:02:36;;;;;;;;;;;2.40;99.90;;;;;;5077765;28;19923;-64
2022/12/04 13:05:07;;;;;;;;;;;2.40;99.90;;;;;;5099425;28;19919;-64
2022/12/04 13:07:38;;;;;;;;;;;2.50;99.90;;;;;;5098502;27;20341;-64
2022/12/04 13:10:15;;;;;;;;;;;2.50;99.90;;;;;;5095317;27;20582;-64
2022/12/04 13:12:44;;;;;;;;;;;2.50;99.90;;;;;;5129282;27;20316;-63
2022/12/04 13:15:17;;;;;;;;;;;2.40;99.90;;;;;;5098908;27;20008;-64
2022/12/04 13:17:44;;;;;;;;;;;2.40;99.90;;;;;;5130829;27;19947;-64
2022/12/04 13:20:20;;;;;;;;;;;2.40;99.90;;;;;;5096966;28;19928;-64
2022/12/04 13:22:48;;;;;;;;;;;2.50;99.90;;;;;;5103182;27;19951;-63
2022/12/04 13:25:43;;;;;;;;;;;2.50;99.90;;;;;;5098111;28;19923;-64
2022/12/04 13:28:24;;;;;;;;;;;2.50;99.90;;;;;;5084737;27;19985;-65
2022/12/04 13:30:53;;;;;;;;;;;2.50;99.90;;;;;;5101555;27;19920;-65
2022/12/04 13:33:30;;;;;;;;;;;2.50;99.90;;;;;;5094521;27;19928;-65
2022/12/04 13:35:56;;;;;;;;;;;2.50;99.90;;;;;;5095350;27;20316;-65
2022/12/04 13:38:40;;;;;;;;;;;2.50;99.90;;;;;;5099943;28;19927;-64
2022/12/04 13:41:07;;;;;;;;;;;2.50;99.90;;;;;;5099754;27;20447;-64
2022/12/04 13:43:33;;;;;;;;;;;2.50;99.90;;;;;;5098107;28;19924;-65
2022/12/04 13:46:00;;;;;;;;;;;2.50;99.90;;;;;;5101533;28;21420;-64
2022/12/04 13:48:38;;;;;;;;;;;2.50;99.90;;;;;;5098780;27;19985;-63
2022/12/04 13:51:21;;;;;;;;;;;2.50;99.90;;;;;;5101198;27;19928;-64
2022/12/04 13:53:47;;;;;;;;;;;2.50;99.90;;;;;;5132480;27;20298;-64
2022/12/04 13:56:23;;;;;;;;;;;2.50;99.90;;;;;;5106455;27;19932;-64
2022/12/04 13:58:57;;;;;;;;;;;2.40;99.90;;;;;;5094832;28;20005;-64
2022/12/04 14:01:24;;;;;;;;;;;2.40;99.90;;;;;;5100429;27;19935;-64
2022/12/04 14:03:54;;;;;;;;;;;2.40;99.90;;;;;;5092414;27;20451;-62
2022/12/04 14:06:31;;;;;;;;;;;2.40;99.90;;;;;;5095105;28;19923;-64
2022/12/04 14:09:01;;;;;;;;;;;2.40;99.90;;;;;;5097489;27;19923;-63
2022/12/04 14:11:29;;;;;;;;;;;2.40;99.90;;;;;;5087349;28;19927;-64
2022/12/04 14:13:56;;;;;;;;;;;2.40;99.90;;;;;;5115476;27;19931;-65
2022/12/04 14:16:23;;;;;;;;;;;2.50;99.90;;;;;;5085096;28;20373;-63
2022/12/04 14:18:53;;;;;;;;;;;2.40;99.90;;;;;;5086764;28;19920;-64
2022/12/04 14:21:19;;;;;;;;;;;2.50;99.90;;;;;;5083943;28;20048;-63
2022/12/04 14:23:44;;;;;;;;;;;2.50;99.90;;;;;;5082335;27;19987;-63
2022/12/04 14:26:36;;;;;;;;;;;2.50;99.90;;;;;;5081799;28;21361;-64
2022/12/04 14:29:06;;;;;;;;;;;2.50;99.90;;;;;;5110030;27;19932;-64
2022/12/04 14:31:37;;;;;;;;;;;2.50;99.90;;;;;;5079429;28;20475;-63
2022/12/04 14:34:22;;;;;;;;;;;2.40;99.90;;;;;;5108023;27;20022;-64
2022/12/04 14:36:50;;;;;;;;;;;2.50;99.90;;;;;;5083046;28;19927;-63
2022/12/04 14:39:28;;;;;;;;;;;2.40;99.90;;;;;;5076491;27;20132;-64
2022/12/04 14:42:03;;;;;;;;;;;2.50;99.90;;;;;;5103836;28;19920;-64
2022/12/04 14:44:29;;;;;;;;;;;2.50;99.90;;;;;;5083880;28;19928;-63
2022/12/04 14:46:59;;;;;;;;;;;2.50;99.90;;;;;;5101308;28;19934;-64
2022/12/04 14:49:28;;;;;;;;;;;2.40;99.90;;;;;;5090677;28;19931;-64
2022/12/04 14:52:00;;;;;;;;;;;2.50;99.90;;;;;;5099519;28;20278;-63
2022/12/04 14:54:29;;;;;;;;;;;2.50;99.90;;;;;;5101888;27;19931;-63